createdAt,value
2023-05-14T00:00:26.022Z,7.17
2023-05-14T00:03:14.594Z,7.12
2023-05-14T00:05:42.919Z,7.05
2023-05-14T00:08:10.983Z,7.01
2023-05-14T00:10:39.086Z,6.98
2023-05-14T00:13:07.225Z,6.90
2023-05-14T00:15:35.550Z,6.84
2023-05-14T00:18:04.168Z,6.84
2023-05-14T00:20:32.372Z,6.88
2023-05-14T00:23:01.363Z,6.88
2023-05-14T00:25:29.863Z,6.88
2023-05-14T00:27:57.912Z,6.86
2023-05-14T00:30:26.035Z,6.86
2023-05-14T00:32:55.011Z,6.87
2023-05-14T00:35:23.359Z,6.87
2023-05-14T00:37:51.634Z,6.87
2023-05-14T00:40:21.234Z,6.85
2023-05-14T00:42:49.936Z,6.85
2023-05-14T00:45:18.210Z,6.89
2023-05-14T00:47:46.823Z,6.86
2023-05-14T00:50:16.914Z,6.81
2023-05-14T00:52:45.594Z,6.77
2023-05-14T00:55:16.684Z,6.73
2023-05-14T00:57:45.630Z,6.66
2023-05-14T01:00:14.328Z,6.62
2023-05-14T01:02:42.562Z,6.58
2023-05-14T01:05:11.279Z,6.50
2023-05-14T01:07:48.665Z,6.37
2023-05-14T01:10:52.691Z,6.32
2023-05-14T01:13:26.627Z,6.30
2023-05-14T01:15:57.888Z,6.30
2023-05-14T01:18:28.305Z,6.31
2023-05-14T01:20:56.541Z,6.28
2023-05-14T01:23:25.434Z,6.26
2023-05-14T01:25:53.469Z,6.25
2023-05-14T01:28:33.151Z,6.24
2023-05-14T01:31:12.376Z,6.26
2023-05-14T01:33:43.477Z,6.29
2023-05-14T01:36:12.206Z,6.34
2023-05-14T01:38:45.714Z,6.36
2023-05-14T01:41:15.670Z,6.37
2023-05-14T01:43:45.153Z,6.31
2023-05-14T01:46:13.224Z,6.26
2023-05-14T01:48:41.595Z,6.22
2023-05-14T01:51:10.015Z,6.20
2023-05-14T01:53:38.643Z,6.18
2023-05-14T01:56:07.246Z,6.19
2023-05-14T01:58:35.413Z,6.26
2023-05-14T02:01:03.715Z,6.30
2023-05-14T02:03:31.970Z,6.33
2023-05-14T02:06:01.056Z,6.36
2023-05-14T02:08:29.418Z,6.42
2023-05-14T02:10:57.708Z,6.46
2023-05-14T02:13:26.614Z,6.48
2023-05-14T02:15:55.016Z,6.48
2023-05-14T02:18:23.358Z,6.42
2023-05-14T02:20:51.524Z,6.36
2023-05-14T02:23:25.690Z,6.37
2023-05-14T02:25:59.448Z,6.38
2023-05-14T02:28:27.637Z,6.37
2023-05-14T02:31:00.831Z,6.36
2023-05-14T02:33:29.113Z,6.33
2023-05-14T02:35:57.372Z,6.32
2023-05-14T02:38:26.970Z,6.30
2023-05-14T02:40:57.399Z,6.29
2023-05-14T02:43:25.444Z,6.30
2023-05-14T02:45:53.861Z,6.34
2023-05-14T02:48:22.543Z,6.33
2023-05-14T02:50:52.168Z,6.35
2023-05-14T02:53:20.531Z,6.36
2023-05-14T02:55:48.703Z,6.33
2023-05-14T02:58:17.076Z,6.33
2023-05-14T03:00:45.382Z,6.34
2023-05-14T03:03:14.266Z,6.36
2023-05-14T03:05:42.834Z,6.39
2023-05-14T03:08:10.904Z,6.45
2023-05-14T03:10:38.973Z,6.57
2023-05-14T03:13:07.370Z,6.65
2023-05-14T03:15:36.018Z,6.73
2023-05-14T03:18:05.184Z,6.79
2023-05-14T03:20:33.303Z,6.89
2023-05-14T03:23:02.000Z,6.97
2023-05-14T03:25:30.073Z,7.05
2023-05-14T03:27:59.488Z,7.12
2023-05-14T03:30:27.814Z,7.19
2023-05-14T03:32:57.719Z,7.27
2023-05-14T03:35:26.036Z,7.38
2023-05-14T03:37:54.215Z,7.50
2023-05-14T03:40:22.416Z,7.63
2023-05-14T03:42:51.690Z,7.77
2023-05-14T03:45:19.966Z,7.86
2023-05-14T03:47:48.206Z,7.97
2023-05-14T03:50:16.739Z,8.14
2023-05-14T03:52:46.122Z,8.31
2023-05-14T03:55:14.302Z,8.48
2023-05-14T03:57:44.219Z,8.68
2023-05-14T04:00:13.313Z,8.89
2023-05-14T04:02:47.571Z,9.11
2023-05-14T04:05:17.042Z,9.31
2023-05-14T04:07:46.218Z,9.56
2023-05-14T04:10:14.406Z,9.79
2023-05-14T04:12:43.093Z,9.98
2023-05-14T04:15:12.521Z,10.16
2023-05-14T04:17:40.887Z,10.33
2023-05-14T04:20:09.899Z,10.53
2023-05-14T04:22:38.163Z,10.77
2023-05-14T04:25:07.820Z,10.98
2023-05-14T04:27:35.826Z,11.18
2023-05-14T04:30:05.019Z,11.38
2023-05-14T04:32:33.219Z,11.60
2023-05-14T04:35:01.270Z,11.79
2023-05-14T04:37:29.651Z,12.03
2023-05-14T04:39:57.821Z,12.29
2023-05-14T04:42:25.992Z,12.55
2023-05-14T04:44:54.265Z,12.84
2023-05-14T04:47:22.778Z,13.20
2023-05-14T04:49:51.027Z,13.50
2023-05-14T04:52:19.306Z,13.74
2023-05-14T04:54:47.640Z,14.00
2023-05-14T04:57:17.183Z,14.26
2023-05-14T04:59:45.262Z,14.54
2023-05-14T05:02:13.537Z,14.73
2023-05-14T05:04:41.705Z,14.94
2023-05-14T05:07:09.994Z,15.11
2023-05-14T05:09:38.158Z,15.32
2023-05-14T05:12:06.945Z,15.56
2023-05-14T05:14:35.133Z,15.82
2023-05-14T05:17:04.026Z,16.05
2023-05-14T05:19:42.372Z,16.32
2023-05-14T05:22:12.461Z,16.63
2023-05-14T05:24:40.632Z,16.85
2023-05-14T05:27:08.811Z,17.05
2023-05-14T05:29:37.282Z,17.32
2023-05-14T05:32:06.276Z,17.59
2023-05-14T05:34:35.071Z,17.83
2023-05-14T05:37:03.438Z,18.01
2023-05-14T05:39:35.215Z,18.23
2023-05-14T05:42:05.553Z,18.44
2023-05-14T05:44:33.696Z,18.68
2023-05-14T05:47:02.256Z,18.89
2023-05-14T05:49:30.753Z,19.18
2023-05-14T05:51:59.040Z,19.46
2023-05-14T05:54:27.417Z,19.73
2023-05-14T05:56:55.587Z,19.94
2023-05-14T05:59:24.479Z,20.06
2023-05-14T06:01:52.919Z,20.18
2023-05-14T06:04:21.682Z,20.33
2023-05-14T06:06:49.832Z,20.48
2023-05-14T06:09:18.100Z,20.62
2023-05-14T06:11:46.267Z,20.68
2023-05-14T06:14:14.343Z,20.94
2023-05-14T06:16:42.432Z,21.10
2023-05-14T06:19:11.542Z,21.30
2023-05-14T06:21:39.783Z,21.50
2023-05-14T06:24:08.373Z,21.73
2023-05-14T06:26:36.651Z,21.97
2023-05-14T06:29:04.719Z,22.16
2023-05-14T06:31:32.814Z,22.15
2023-05-14T06:34:01.070Z,22.16
2023-05-14T06:36:29.140Z,22.51
2023-05-14T06:38:57.208Z,22.86
2023-05-14T06:41:25.279Z,23.07
2023-05-14T06:43:53.436Z,23.34
2023-05-14T06:46:21.732Z,23.40
2023-05-14T06:48:49.927Z,23.52
2023-05-14T06:51:18.385Z,23.80
2023-05-14T06:53:47.898Z,23.94
2023-05-14T06:56:16.067Z,24.12
2023-05-14T06:58:44.133Z,24.53
2023-05-14T07:01:12.419Z,24.61
2023-05-14T07:03:40.692Z,24.75
2023-05-14T07:06:08.893Z,25.10
2023-05-14T07:08:37.030Z,25.16
2023-05-14T07:11:05.338Z,25.36
2023-05-14T07:13:33.610Z,25.80
2023-05-14T07:16:01.972Z,26.00
2023-05-14T07:18:30.499Z,26.02
2023-05-14T07:20:58.831Z,25.84
2023-05-14T07:23:27.007Z,25.84
2023-05-14T07:25:55.389Z,25.64
2023-05-14T07:28:23.563Z,25.40
2023-05-14T07:30:51.802Z,25.33
2023-05-14T07:33:20.014Z,25.48
2023-05-14T07:35:48.203Z,25.57
2023-05-14T07:38:17.276Z,25.59
2023-05-14T07:40:45.866Z,25.42
2023-05-14T07:43:14.462Z,25.11
2023-05-14T07:45:42.844Z,25.47
2023-05-14T07:48:11.548Z,25.36
2023-05-14T07:50:39.900Z,25.24
2023-05-14T07:53:08.593Z,25.04
2023-05-14T07:55:37.159Z,24.89
2023-05-14T07:58:05.336Z,24.79
2023-05-14T08:00:33.607Z,24.85
2023-05-14T08:03:01.819Z,24.93
2023-05-14T08:05:30.169Z,25.16
2023-05-14T08:07:58.168Z,25.30
2023-05-14T08:10:27.344Z,25.25
2023-05-14T08:12:55.833Z,25.25
2023-05-14T08:15:27.082Z,25.37
2023-05-14T08:17:56.619Z,25.37
2023-05-14T08:20:24.928Z,25.32
2023-05-14T08:22:53.321Z,25.40
2023-05-14T08:25:21.400Z,25.31
2023-05-14T08:27:49.569Z,25.26
2023-05-14T08:30:18.264Z,25.45
2023-05-14T08:32:46.364Z,25.48
2023-05-14T08:35:14.508Z,25.62
2023-05-14T08:37:42.581Z,25.64
2023-05-14T08:40:11.981Z,25.71
2023-05-14T08:42:45.261Z,25.64
2023-05-14T08:45:22.119Z,25.63
2023-05-14T08:47:51.919Z,25.70
2023-05-14T08:50:23.661Z,25.65
2023-05-14T08:52:53.128Z,25.67
2023-05-14T08:55:21.407Z,25.83
2023-05-14T08:57:50.300Z,25.76
2023-05-14T09:00:18.903Z,25.65
2023-05-14T09:02:48.822Z,25.72
2023-05-14T09:05:19.052Z,25.85
2023-05-14T09:07:47.079Z,26.05
2023-05-14T09:10:16.283Z,26.02
2023-05-14T09:12:44.655Z,26.27
2023-05-14T09:15:13.147Z,26.29
2023-05-14T09:17:41.686Z,26.44
2023-05-14T09:20:13.116Z,26.63
2023-05-14T09:22:42.274Z,26.78
2023-05-14T09:25:12.551Z,26.66
2023-05-14T09:27:40.771Z,26.94
2023-05-14T09:30:13.529Z,27.23
2023-05-14T09:32:44.261Z,27.28
2023-05-14T09:35:19.284Z,27.31
2023-05-14T09:37:53.029Z,27.31
2023-05-14T09:40:24.378Z,27.01
2023-05-14T09:42:53.264Z,26.77
2023-05-14T09:45:21.344Z,26.83
2023-05-14T09:47:49.801Z,27.03
2023-05-14T09:50:18.096Z,27.08
2023-05-14T09:52:46.170Z,26.72
2023-05-14T09:55:15.166Z,26.80
2023-05-14T09:57:43.353Z,26.72
2023-05-14T10:00:12.945Z,26.43
2023-05-14T10:02:43.490Z,26.42
2023-05-14T10:05:13.380Z,26.42
2023-05-14T10:07:47.918Z,26.15
2023-05-14T10:10:19.360Z,26.06
2023-05-14T10:12:58.328Z,26.03
2023-05-14T10:15:51.867Z,26.06
2023-05-14T10:18:23.761Z,25.98
2023-05-14T10:21:06.737Z,26.07
2023-05-14T10:23:38.151Z,26.24
2023-05-14T10:26:07.074Z,26.51
2023-05-14T10:28:35.868Z,26.68
2023-05-14T10:31:04.116Z,26.81
2023-05-14T10:33:47.402Z,26.71
2023-05-14T10:36:15.868Z,26.48
2023-05-14T10:38:44.431Z,26.18
2023-05-14T10:41:18.124Z,26.24
2023-05-14T10:43:46.314Z,26.35
2023-05-14T10:46:15.258Z,26.09
2023-05-14T10:48:44.708Z,25.98
2023-05-14T10:51:13.282Z,25.88
2023-05-14T10:53:42.496Z,26.06
2023-05-14T10:56:13.029Z,26.03
2023-05-14T10:58:45.230Z,26.00
2023-05-14T11:01:14.467Z,25.85
2023-05-14T11:03:45.549Z,25.95
2023-05-14T11:06:15.878Z,26.17
2023-05-14T11:08:44.784Z,26.21
2023-05-14T11:11:13.352Z,26.17
2023-05-14T11:13:41.767Z,26.37
2023-05-14T11:18:42.250Z,26.49
2023-05-14T11:21:10.569Z,26.44
2023-05-14T11:23:39.127Z,26.44
2023-05-14T11:26:07.519Z,26.49
2023-05-14T11:28:36.591Z,26.56
2023-05-14T11:31:05.908Z,26.61
2023-05-14T11:33:34.173Z,26.65
2023-05-14T11:36:02.664Z,26.67
2023-05-14T11:38:30.840Z,26.75
2023-05-14T11:40:59.832Z,26.71
2023-05-14T11:43:31.505Z,26.82
2023-05-14T11:45:59.598Z,26.89
2023-05-14T11:48:28.135Z,26.87
2023-05-14T11:50:56.180Z,26.74
2023-05-14T11:53:30.171Z,26.72
2023-05-14T11:55:58.416Z,26.99
2023-05-14T11:58:26.767Z,27.11
2023-05-14T12:00:56.081Z,27.01
2023-05-14T12:03:30.138Z,26.71
2023-05-14T12:06:00.310Z,26.62
2023-05-14T12:08:30.947Z,26.82
2023-05-14T12:11:00.806Z,26.81
2023-05-14T12:13:33.041Z,26.86
2023-05-14T12:16:02.552Z,27.01
2023-05-14T12:18:32.591Z,27.03
2023-05-14T12:21:06.044Z,27.05
2023-05-14T12:23:34.314Z,27.05
2023-05-14T12:26:04.315Z,26.95
2023-05-14T12:28:34.295Z,26.87
2023-05-14T12:31:04.638Z,26.80
2023-05-14T12:33:33.054Z,26.57
2023-05-14T12:36:20.459Z,26.55
2023-05-14T12:38:50.968Z,26.56
2023-05-14T12:41:19.185Z,26.51
2023-05-14T12:43:48.288Z,26.18
2023-05-14T12:46:17.411Z,25.95
2023-05-14T12:48:46.502Z,25.76
2023-05-14T12:51:15.258Z,25.26
2023-05-14T12:53:43.460Z,24.66
2023-05-14T12:56:13.035Z,24.18
2023-05-14T12:58:41.627Z,23.82
2023-05-14T13:01:10.625Z,23.48
2023-05-14T13:03:38.886Z,23.15
2023-05-14T13:06:08.097Z,22.91
2023-05-14T13:08:36.258Z,22.74
2023-05-14T13:11:04.444Z,22.57
2023-05-14T13:13:32.919Z,22.45
2023-05-14T13:16:01.195Z,22.50
2023-05-14T13:18:29.362Z,22.44
2023-05-14T13:20:57.639Z,22.29
2023-05-14T13:23:26.037Z,22.30
2023-05-14T13:25:54.196Z,22.36
2023-05-14T13:28:22.474Z,22.37
2023-05-14T13:31:08.120Z,22.25
2023-05-14T13:33:38.181Z,22.08
2023-05-14T13:36:07.170Z,22.06
2023-05-14T13:38:35.496Z,22.07
2023-05-14T13:41:04.086Z,22.09
2023-05-14T13:43:36.128Z,22.11
2023-05-14T13:46:06.917Z,22.19
2023-05-14T13:48:37.283Z,22.27
2023-05-14T13:51:05.536Z,22.28
2023-05-14T13:53:33.709Z,22.34
2023-05-14T13:56:02.086Z,22.25
2023-05-14T13:58:30.403Z,22.23
2023-05-14T14:00:59.050Z,22.29
2023-05-14T14:03:27.119Z,22.26
2023-05-14T14:05:55.517Z,22.05
2023-05-14T14:08:24.521Z,21.84
2023-05-14T14:10:55.589Z,21.55
2023-05-14T14:13:24.615Z,21.31
2023-05-14T14:15:52.976Z,21.01
2023-05-14T14:18:21.185Z,20.75
2023-05-14T14:20:49.271Z,20.55
2023-05-14T14:23:17.546Z,20.43
2023-05-14T14:25:45.717Z,20.34
2023-05-14T14:28:14.111Z,20.35
2023-05-14T14:30:43.916Z,20.32
2023-05-14T14:33:12.073Z,20.30
2023-05-14T14:35:40.248Z,20.32
2023-05-14T14:38:08.520Z,20.35
2023-05-14T14:40:36.694Z,20.39
2023-05-14T14:43:04.875Z,20.47
2023-05-14T14:45:32.994Z,20.55
2023-05-14T14:48:26.211Z,20.58
2023-05-14T14:50:55.956Z,20.56
2023-05-14T14:53:25.120Z,20.43
2023-05-14T14:55:53.455Z,20.27
2023-05-14T14:58:22.091Z,20.09
2023-05-14T15:00:52.262Z,19.99
2023-05-14T15:03:21.432Z,19.88
2023-05-14T15:05:51.314Z,19.73
2023-05-14T15:08:20.913Z,19.58
2023-05-14T15:10:48.994Z,19.55
2023-05-14T15:13:17.789Z,19.44
2023-05-14T15:15:45.955Z,19.29
2023-05-14T15:18:14.152Z,19.20
2023-05-14T15:20:42.713Z,19.12
2023-05-14T15:23:11.828Z,19.04
2023-05-14T15:25:40.081Z,18.97
2023-05-14T15:28:08.260Z,18.89
2023-05-14T15:30:36.539Z,18.85
2023-05-14T15:33:07.952Z,18.77
2023-05-14T15:35:36.882Z,18.76
2023-05-14T15:38:05.169Z,18.76
2023-05-14T15:40:35.171Z,18.76
2023-05-14T15:43:03.412Z,18.74
2023-05-14T15:45:31.634Z,18.69
2023-05-14T15:47:59.932Z,18.66
2023-05-14T15:50:28.382Z,18.60
2023-05-14T15:52:56.767Z,18.46
2023-05-14T15:55:24.934Z,18.33
2023-05-14T15:57:53.113Z,18.18
2023-05-14T16:00:21.868Z,18.04
2023-05-14T16:02:50.636Z,17.91
2023-05-14T16:05:19.377Z,17.79
2023-05-14T16:07:47.651Z,17.68
2023-05-14T16:10:15.773Z,17.60
2023-05-14T16:12:44.097Z,17.51
2023-05-14T16:15:12.164Z,17.43
2023-05-14T16:17:41.129Z,17.35
2023-05-14T16:20:09.960Z,17.30
2023-05-14T16:22:38.128Z,17.24
2023-05-14T16:25:06.923Z,17.17
2023-05-14T16:27:35.595Z,17.10
2023-05-14T16:30:04.556Z,17.03
2023-05-14T16:32:33.908Z,16.96
2023-05-14T16:35:03.138Z,16.86
2023-05-14T16:37:31.369Z,16.75
2023-05-14T16:39:59.436Z,16.64
2023-05-14T16:42:27.824Z,16.54
2023-05-14T16:44:56.094Z,16.47
2023-05-14T16:47:24.270Z,16.39
2023-05-14T16:49:52.435Z,16.32
2023-05-14T16:52:20.479Z,16.24
2023-05-14T16:54:48.574Z,16.15
2023-05-14T16:57:16.748Z,16.05
2023-05-14T16:59:44.835Z,15.97
2023-05-14T17:02:12.996Z,15.87
2023-05-14T17:04:42.382Z,15.79
2023-05-14T17:07:11.827Z,15.69
2023-05-14T17:09:39.978Z,15.58
2023-05-14T17:12:09.737Z,15.52
2023-05-14T17:14:37.852Z,15.44
2023-05-14T17:17:06.240Z,15.33
2023-05-14T17:19:34.410Z,15.25
2023-05-14T17:22:05.964Z,15.16
2023-05-14T17:24:35.676Z,15.09
2023-05-14T17:27:03.867Z,15.02
2023-05-14T17:29:32.425Z,14.93
2023-05-14T17:32:00.786Z,14.88
2023-05-14T17:34:28.991Z,14.91
2023-05-14T17:36:57.504Z,14.89
2023-05-14T17:39:25.640Z,14.83
2023-05-14T17:41:53.813Z,14.77
2023-05-14T17:44:22.090Z,14.71
2023-05-14T17:46:50.602Z,14.65
2023-05-14T17:49:18.956Z,14.58
2023-05-14T17:51:47.136Z,14.52
2023-05-14T17:54:15.305Z,14.45
2023-05-14T17:56:43.490Z,14.39
2023-05-14T17:59:11.672Z,14.40
2023-05-14T18:01:39.832Z,14.37
2023-05-14T18:04:08.109Z,14.32
2023-05-14T18:06:36.493Z,14.28
2023-05-14T18:09:04.800Z,14.23
2023-05-14T18:11:34.186Z,14.18
2023-05-14T18:14:02.563Z,14.13
2023-05-14T18:16:31.592Z,14.08
2023-05-14T18:19:02.755Z,14.07
2023-05-14T18:21:31.091Z,14.09
2023-05-14T18:23:59.258Z,14.07
2023-05-14T18:26:27.416Z,14.03
2023-05-14T18:28:55.596Z,13.99
2023-05-14T18:31:23.895Z,13.97
2023-05-14T18:33:52.045Z,13.93
2023-05-14T18:36:20.222Z,13.89
2023-05-14T18:38:48.334Z,13.90
2023-05-14T18:41:16.459Z,13.91
2023-05-14T18:43:44.851Z,13.88
2023-05-14T18:46:13.080Z,13.82
2023-05-14T18:48:41.601Z,13.70
2023-05-14T18:51:11.411Z,13.62
2023-05-14T18:53:39.476Z,13.58
2023-05-14T18:56:09.661Z,13.52
2023-05-14T18:58:37.996Z,13.46
2023-05-14T19:01:06.181Z,13.40
2023-05-14T19:03:34.422Z,13.32
2023-05-14T19:06:02.918Z,13.27
2023-05-14T19:08:30.988Z,13.26
2023-05-14T19:10:59.057Z,13.23
2023-05-14T19:13:28.865Z,13.16
2023-05-14T19:15:57.070Z,13.08
2023-05-14T19:18:25.527Z,13.01
2023-05-14T19:20:53.798Z,12.94
2023-05-14T19:23:21.975Z,12.85
2023-05-14T19:25:50.370Z,12.72
2023-05-14T19:28:20.064Z,12.53
2023-05-14T19:30:48.136Z,12.40
2023-05-14T19:33:16.153Z,12.27
2023-05-14T19:35:44.586Z,12.15
2023-05-14T19:38:13.267Z,12.03
2023-05-14T19:40:43.039Z,11.95
2023-05-14T19:43:12.694Z,11.83
2023-05-14T19:45:42.894Z,11.69
2023-05-14T19:48:12.756Z,11.57
2023-05-14T19:50:41.715Z,11.48
2023-05-14T19:53:09.890Z,11.38
2023-05-14T19:55:38.067Z,11.30
2023-05-14T19:58:06.358Z,11.26
2023-05-14T20:00:34.720Z,11.16
2023-05-14T20:03:04.135Z,11.07
2023-05-14T20:05:34.660Z,10.94
2023-05-14T20:08:06.622Z,10.88
2023-05-14T20:10:34.893Z,10.84
2023-05-14T20:13:03.502Z,10.84
2023-05-14T20:15:31.554Z,10.81
2023-05-14T20:17:59.757Z,10.81
2023-05-14T20:20:29.678Z,10.80
2023-05-14T20:23:00.484Z,10.80
2023-05-14T20:25:28.945Z,10.79
2023-05-14T20:27:57.125Z,10.78
2023-05-14T20:30:25.445Z,10.75
2023-05-14T20:32:54.166Z,10.71
2023-05-14T20:35:22.493Z,10.68
2023-05-14T20:37:51.373Z,10.64
2023-05-14T20:40:19.693Z,10.67
2023-05-14T20:42:50.511Z,10.66
2023-05-14T20:45:18.972Z,10.64
2023-05-14T20:47:47.348Z,10.60
2023-05-14T20:50:15.511Z,10.59
2023-05-14T20:52:43.994Z,10.56
2023-05-14T20:55:13.199Z,10.53
2023-05-14T20:57:41.365Z,10.49
2023-05-14T21:00:12.715Z,10.46
2023-05-14T21:02:40.962Z,10.44
2023-05-14T21:05:09.672Z,10.44
2023-05-14T21:07:39.408Z,10.45
2023-05-14T21:10:09.490Z,10.44
2023-05-14T21:12:37.688Z,10.43
2023-05-14T21:15:06.465Z,10.37
2023-05-14T21:17:34.671Z,10.33
2023-05-14T21:20:03.537Z,10.30
2023-05-14T21:22:31.712Z,10.25
2023-05-14T21:24:59.885Z,10.21
2023-05-14T21:27:28.056Z,10.14
2023-05-14T21:29:56.232Z,10.06
2023-05-14T21:32:24.451Z,10.07
2023-05-14T21:34:52.680Z,10.04
2023-05-14T21:37:22.401Z,10.01
2023-05-14T21:39:51.087Z,9.98
2023-05-14T21:42:21.168Z,9.96
2023-05-14T21:44:49.390Z,9.93
2023-05-14T21:47:17.961Z,9.90
2023-05-14T21:49:46.042Z,9.85
2023-05-14T21:52:14.407Z,9.78
2023-05-14T21:54:42.584Z,9.77
2023-05-14T21:57:10.754Z,9.74
2023-05-14T21:59:38.936Z,9.67
2023-05-14T22:02:08.000Z,9.57
2023-05-14T22:04:36.508Z,9.51
2023-05-14T22:07:05.197Z,9.45
2023-05-14T22:09:33.472Z,9.36
2023-05-14T22:12:01.548Z,9.26
2023-05-14T22:14:29.810Z,9.14
2023-05-14T22:16:57.949Z,9.08
2023-05-14T22:19:27.091Z,9.05
2023-05-14T22:21:55.176Z,9.00
2023-05-14T22:24:23.334Z,8.96
2023-05-14T22:26:51.612Z,8.93
2023-05-14T22:29:19.687Z,8.93
2023-05-14T22:31:47.980Z,8.91
2023-05-14T22:34:16.447Z,8.89
2023-05-14T22:36:44.502Z,8.86
2023-05-14T22:39:13.589Z,8.85
2023-05-14T22:41:41.985Z,8.84
2023-05-14T22:44:10.058Z,8.83
2023-05-14T22:46:38.187Z,8.81
2023-05-14T22:49:06.601Z,8.77
2023-05-14T22:51:34.693Z,8.70
2023-05-14T22:54:02.754Z,8.65
2023-05-14T22:56:31.147Z,8.61
2023-05-14T22:59:02.184Z,8.55
2023-05-14T23:01:32.138Z,8.47
2023-05-14T23:04:00.399Z,8.41
2023-05-14T23:06:30.194Z,8.40
2023-05-14T23:08:58.639Z,8.42
2023-05-14T23:11:27.096Z,8.42
2023-05-14T23:13:55.946Z,8.40
2023-05-14T23:16:24.614Z,8.36
2023-05-14T23:18:53.016Z,8.35
2023-05-14T23:21:21.265Z,8.34
2023-05-14T23:23:49.338Z,8.33
2023-05-14T23:26:17.421Z,8.30
2023-05-14T23:28:47.511Z,8.28
2023-05-14T23:31:15.716Z,8.28
2023-05-14T23:33:44.919Z,8.29
2023-05-14T23:36:13.387Z,8.25
2023-05-14T23:38:41.968Z,8.23
2023-05-14T23:41:10.036Z,8.22
2023-05-14T23:43:38.211Z,8.21
2023-05-14T23:46:06.629Z,8.18
2023-05-14T23:48:35.176Z,8.14
2023-05-14T23:51:03.352Z,8.12
2023-05-14T23:53:31.525Z,8.12
2023-05-14T23:55:59.808Z,8.16
2023-05-14T23:58:30.225Z,8.26
